Time;durP1;ratioP1;P1;durP2;ratioP2;P2;SDS_P1;SDS_P2;PMS_P1;PMS_P2;Temp;Humidity;BMP_temperature;BMP_pressure;BME280_temperature;BME280_humidity;BME280_pressure;Samples;Min_cycle;Max_cycle;Signal;HPM_P1;HPM_P2
2022/07/31 00:01:18;;;;;;;8.02;3.03;;;;;;;;;;7376342;19;20709;-72
2022/07/31 00:03:44;;;;;;;6.10;2.92;;;;;;;;;;7377615;19;20048;-72
2022/07/31 00:06:09;;;;;;;5.95;2.97;;;;;;;;;;7370285;19;20018;-74
2022/07/31 00:08:34;;;;;;;8.00;2.67;;;;;;;;;;7371339;19;20002;-71
2022/07/31 00:10:59;;;;;;;6.97;2.83;;;;;;;;;;7381979;19;20034;-71
2022/07/31 00:13:25;;;;;;;5.40;3.13;;;;;;;;;;7380954;19;20621;-71
2022/07/31 00:15:50;;;;;;;6.13;3.13;;;;;;;;;;7379400;19;19994;-75
2022/07/31 00:18:15;;;;;;;6.07;2.90;;;;;;;;;;7376515;19;20264;-73
2022/07/31 00:20:40;;;;;;;7.72;3.38;;;;;;;;;;7376153;19;20251;-71
2022/07/31 00:23:05;;;;;;;5.53;2.80;;;;;;;;;;7371144;19;20002;-71
2022/07/31 00:25:31;;;;;;;5.88;3.17;;;;;;;;;;7378839;19;20401;-71
2022/07/31 00:27:56;;;;;;;7.05;3.50;;;;;;;;;;7371557;19;20017;-72
2022/07/31 00:30:22;;;;;;;7.10;3.50;;;;;;;;;;7369600;19;20082;-71
2022/07/31 00:32:47;;;;;;;7.07;3.30;;;;;;;;;;7378389;19;20340;-71
2022/07/31 00:35:15;;;;;;;9.05;3.80;;;;;;;;;;7354929;19;20021;-74
2022/07/31 00:37:41;;;;;;;6.75;3.22;;;;;;;;;;7377403;19;20018;-72
2022/07/31 00:40:07;;;;;;;5.53;2.83;;;;;;;;;;7375393;19;20002;-70
2022/07/31 00:42:32;;;;;;;6.95;3.30;;;;;;;;;;7378399;19;20470;-70
2022/07/31 00:44:57;;;;;;;7.22;3.30;;;;;;;;;;7383444;19;20081;-71
2022/07/31 00:47:23;;;;;;;12.17;4.43;;;;;;;;;;7380889;19;20482;-72
2022/07/31 00:49:48;;;;;;;6.85;3.97;;;;;;;;;;7382529;19;20239;-71
2022/07/31 00:52:13;;;;;;;7.82;3.92;;;;;;;;;;7377787;19;20359;-72
2022/07/31 00:54:39;;;;;;;8.93;3.53;;;;;;;;;;7384225;19;20011;-71
2022/07/31 00:57:04;;;;;;;15.13;4.00;;;;;;;;;;7378800;19;20006;-71
2022/07/31 00:59:30;;;;;;;7.68;4.00;;;;;;;;;;7384271;19;20007;-71
2022/07/31 01:01:56;;;;;;;9.77;3.90;;;;;;;;;;7385011;19;19990;-70
2022/07/31 01:04:21;;;;;;;6.80;3.80;;;;;;;;;;7371741;19;20015;-70
2022/07/31 01:06:46;;;;;;;8.37;3.93;;;;;;;;;;7370619;19;20539;-71
2022/07/31 01:09:15;;;;;;;7.65;4.18;;;;;;;;;;7380716;19;20781;-72
2022/07/31 01:11:54;;;;;;;8.43;4.03;;;;;;;;;;7378195;19;19999;-71
2022/07/31 01:14:20;;;;;;;6.25;3.60;;;;;;;;;;7383410;19;20485;-71
2022/07/31 01:16:47;;;;;;;10.23;3.65;;;;;;;;;;7383043;19;20021;-71
2022/07/31 01:19:17;;;;;;;8.18;3.95;;;;;;;;;;7376812;19;20042;-73
2022/07/31 01:21:48;;;;;;;6.22;3.35;;;;;;;;;;7376373;19;20007;-71
2022/07/31 01:24:13;;;;;;;7.60;3.28;;;;;;;;;;7383326;19;20010;-70
2022/07/31 01:26:48;;;;;;;9.25;3.80;;;;;;;;;;7380421;19;20343;-70
2022/07/31 01:29:13;;;;;;;8.27;3.40;;;;;;;;;;7379012;19;20003;-71
2022/07/31 01:31:42;;;;;;;7.00;3.45;;;;;;;;;;7368790;19;20005;-73
2022/07/31 01:34:09;;;;;;;7.47;3.25;;;;;;;;;;7382595;19;20007;-71
2022/07/31 01:36:36;;;;;;;8.10;3.70;;;;;;;;;;7375788;19;20005;-71
2022/07/31 01:39:01;;;;;;;8.13;3.72;;;;;;;;;;7377021;19;20408;-71
2022/07/31 01:41:29;;;;;;;7.85;3.50;;;;;;;;;;7379347;19;20006;-72
2022/07/31 01:43:55;;;;;;;6.70;3.33;;;;;;;;;;7371934;19;20013;-74
2022/07/31 01:46:22;;;;;;;5.68;3.20;;;;;;;;;;7377643;19;20033;-71
2022/07/31 01:48:48;;;;;;;5.68;3.10;;;;;;;;;;7370140;19;20050;-72
2022/07/31 01:51:13;;;;;;;6.72;3.42;;;;;;;;;;7359029;19;19994;-72
2022/07/31 01:53:39;;;;;;;10.32;3.80;;;;;;;;;;7373478;19;20042;-70
2022/07/31 01:56:05;;;;;;;8.77;3.50;;;;;;;;;;7377573;19;20006;-71
2022/07/31 01:58:35;;;;;;;7.38;3.58;;;;;;;;;;7380195;19;20029;-74
2022/07/31 02:01:02;;;;;;;7.70;3.67;;;;;;;;;;7375234;19;20454;-70
2022/07/31 02:03:27;;;;;;;7.88;3.97;;;;;;;;;;7377719;19;20477;-73
2022/07/31 02:05:53;;;;;;;8.77;3.78;;;;;;;;;;7375400;19;20012;-70
2022/07/31 02:08:19;;;;;;;6.30;3.42;;;;;;;;;;7378454;19;20025;-75
2022/07/31 02:10:45;;;;;;;5.85;3.53;;;;;;;;;;7376307;19;20471;-72
2022/07/31 02:13:11;;;;;;;8.45;4.00;;;;;;;;;;7375520;19;20011;-72
2022/07/31 02:15:36;;;;;;;7.43;3.88;;;;;;;;;;7376606;19;20505;-71
2022/07/31 02:18:02;;;;;;;7.10;4.07;;;;;;;;;;7381427;19;20015;-70
2022/07/31 02:20:29;;;;;;;7.00;3.92;;;;;;;;;;7375147;19;20010;-71
2022/07/31 02:22:55;;;;;;;7.82;3.67;;;;;;;;;;7379208;19;20030;-71
2022/07/31 02:25:21;;;;;;;6.13;3.65;;;;;;;;;;7380495;19;19994;-72
2022/07/31 02:27:46;;;;;;;5.70;3.20;;;;;;;;;;7376676;19;20006;-72
2022/07/31 02:30:12;;;;;;;10.15;4.10;;;;;;;;;;7375868;19;20326;-71
2022/07/31 02:32:38;;;;;;;7.68;3.63;;;;;;;;;;7375004;19;20015;-70
2022/07/31 02:35:04;;;;;;;7.45;3.50;;;;;;;;;;7374226;19;20062;-71
2022/07/31 02:37:31;;;;;;;6.88;4.18;;;;;;;;;;7373793;19;20086;-72
2022/07/31 02:39:56;;;;;;;6.45;3.40;;;;;;;;;;7373768;19;20007;-70
2022/07/31 02:42:21;;;;;;;7.40;4.03;;;;;;;;;;7377671;19;20394;-73
2022/07/31 02:44:47;;;;;;;8.70;3.53;;;;;;;;;;7377749;19;20006;-72
2022/07/31 02:47:13;;;;;;;6.47;3.58;;;;;;;;;;7381553;19;20244;-72
2022/07/31 02:49:38;;;;;;;7.15;4.10;;;;;;;;;;7381796;19;20006;-72
2022/07/31 02:52:04;;;;;;;6.70;4.00;;;;;;;;;;7380409;19;20474;-71
2022/07/31 02:54:29;;;;;;;8.00;3.75;;;;;;;;;;7380117;19;20003;-71
2022/07/31 02:56:55;;;;;;;7.05;3.78;;;;;;;;;;7386589;19;20469;-72
2022/07/31 02:59:21;;;;;;;8.70;3.80;;;;;;;;;;7384649;19;20013;-70
2022/07/31 03:01:46;;;;;;;7.13;3.70;;;;;;;;;;7383453;19;20218;-71
2022/07/31 03:04:11;;;;;;;9.27;3.80;;;;;;;;;;7383780;19;20010;-71
2022/07/31 03:06:37;;;;;;;7.47;3.60;;;;;;;;;;7381391;19;20029;-72
2022/07/31 03:09:02;;;;;;;7.50;3.50;;;;;;;;;;7387214;19;20037;-71
2022/07/31 03:11:27;;;;;;;5.50;3.20;;;;;;;;;;7383741;19;20360;-73
2022/07/31 03:13:53;;;;;;;6.45;3.30;;;;;;;;;;7381637;19;20015;-71
2022/07/31 03:16:19;;;;;;;9.45;2.90;;;;;;;;;;7386971;19;20334;-72
2022/07/31 03:18:45;;;;;;;5.80;3.70;;;;;;;;;;7380304;19;20026;-72
2022/07/31 03:21:10;;;;;;;8.35;3.88;;;;;;;;;;7378451;19;20347;-71
2022/07/31 03:23:36;;;;;;;7.50;4.00;;;;;;;;;;7384531;19;20014;-73
2022/07/31 03:26:01;;;;;;;7.33;3.57;;;;;;;;;;7382364;19;20542;-70
2022/07/31 03:28:27;;;;;;;7.63;3.65;;;;;;;;;;7383716;19;20323;-71
2022/07/31 03:30:52;;;;;;;7.47;3.30;;;;;;;;;;7383279;19;20010;-74
2022/07/31 03:33:18;;;;;;;7.45;3.70;;;;;;;;;;7382108;19;20018;-70
2022/07/31 03:35:43;;;;;;;8.25;3.60;;;;;;;;;;7380029;19;20027;-71
2022/07/31 03:38:08;;;;;;;7.80;4.30;;;;;;;;;;7384816;19;20470;-71
2022/07/31 03:40:33;;;;;;;10.13;4.00;;;;;;;;;;7384590;19;20280;-70
2022/07/31 03:43:00;;;;;;;5.47;3.58;;;;;;;;;;7378652;19;20011;-73
2022/07/31 03:45:26;;;;;;;7.25;3.88;;;;;;;;;;7384893;19;20015;-72
2022/07/31 03:47:51;;;;;;;7.18;3.05;;;;;;;;;;7385927;19;20062;-71
2022/07/31 03:50:16;;;;;;;8.38;4.13;;;;;;;;;;7376209;19;20617;-72
2022/07/31 03:52:42;;;;;;;6.82;3.85;;;;;;;;;;7382617;19;20328;-71
2022/07/31 03:55:08;;;;;;;7.68;3.88;;;;;;;;;;7386421;19;20027;-70
2022/07/31 03:57:34;;;;;;;8.57;4.53;;;;;;;;;;7380565;19;20015;-71
2022/07/31 04:00:01;;;;;;;8.43;3.60;;;;;;;;;;7380361;19;20017;-74
2022/07/31 04:02:27;;;;;;;8.00;4.15;;;;;;;;;;7383464;19;20014;-71
2022/07/31 04:04:52;;;;;;;7.25;4.20;;;;;;;;;;7378529;19;20394;-71
2022/07/31 04:07:18;;;;;;;6.90;4.20;;;;;;;;;;7372333;19;20461;-72
2022/07/31 04:09:43;;;;;;;7.72;4.20;;;;;;;;;;7376689;19;20500;-74
2022/07/31 04:12:08;;;;;;;9.05;4.10;;;;;;;;;;7374532;19;20011;-72
2022/07/31 04:14:34;;;;;;;8.70;4.90;;;;;;;;;;7381585;19;20002;-71
2022/07/31 04:16:59;;;;;;;7.53;4.10;;;;;;;;;;7382799;19;20379;-70
2022/07/31 04:19:24;;;;;;;9.10;4.50;;;;;;;;;;7383252;19;20702;-70
2022/07/31 04:21:49;;;;;;;8.90;4.27;;;;;;;;;;7372464;19;20126;-70
2022/07/31 04:24:17;;;;;;;12.23;4.60;;;;;;;;;;7383274;19;20331;-72
2022/07/31 04:26:42;;;;;;;10.38;4.65;;;;;;;;;;7374746;19;20477;-70
2022/07/31 04:29:07;;;;;;;7.63;4.20;;;;;;;;;;7378618;19;20003;-72
2022/07/31 04:31:33;;;;;;;9.82;4.57;;;;;;;;;;7375808;19;20023;-71
2022/07/31 04:33:58;;;;;;;7.17;3.87;;;;;;;;;;7374542;19;20044;-71
2022/07/31 04:36:23;;;;;;;6.17;3.97;;;;;;;;;;7375095;19;21036;-73
2022/07/31 04:38:48;;;;;;;6.97;3.88;;;;;;;;;;7381394;19;20239;-71
2022/07/31 04:41:14;;;;;;;7.10;3.70;;;;;;;;;;7382031;19;19991;-72
2022/07/31 04:43:39;;;;;;;7.05;4.05;;;;;;;;;;7383002;19;20014;-70
2022/07/31 04:46:04;;;;;;;13.48;3.80;;;;;;;;;;7377723;19;20006;-71
2022/07/31 04:48:29;;;;;;;7.23;3.80;;;;;;;;;;7382614;19;20022;-70
2022/07/31 04:50:54;;;;;;;6.83;3.77;;;;;;;;;;7377686;19;20279;-70
2022/07/31 04:53:20;;;;;;;6.03;4.13;;;;;;;;;;7374738;19;20017;-70
2022/07/31 04:56:32;;;;;;;7.80;3.92;;;;;;;;;;7382113;19;20035;-73
2022/07/31 04:58:30;;;;;;;6.95;4.22;;;;;;;;;;7383586;19;20322;-71
2022/07/31 05:00:55;;;;;;;8.50;3.97;;;;;;;;;;7379924;19;20021;-71
2022/07/31 05:03:21;;;;;;;9.60;3.90;;;;;;;;;;7368853;19;20026;-70
2022/07/31 05:05:46;;;;;;;8.07;4.47;;;;;;;;;;7373520;19;20267;-72
2022/07/31 05:08:11;;;;;;;7.97;3.73;;;;;;;;;;7382580;19;20235;-70
2022/07/31 05:13:20;;;;;;;9.95;4.13;;;;;;;;;;7383855;19;20249;-70
2022/07/31 05:15:45;;;;;;;8.77;4.00;;;;;;;;;;7376525;19;19995;-71
2022/07/31 05:18:11;;;;;;;7.03;3.83;;;;;;;;;;7381740;19;20014;-72
2022/07/31 05:20:36;;;;;;;6.85;3.92;;;;;;;;;;7373315;19;20255;-71
2022/07/31 05:23:02;;;;;;;8.27;4.78;;;;;;;;;;7380389;19;20011;-70
2022/07/31 05:25:27;;;;;;;6.80;3.97;;;;;;;;;;7378872;19;20062;-71
2022/07/31 05:27:52;;;;;;;6.17;3.63;;;;;;;;;;7374515;19;20010;-72
2022/07/31 05:30:17;;;;;;;7.77;3.87;;;;;;;;;;7377499;19;20270;-71
2022/07/31 05:32:42;;;;;;;7.43;3.57;;;;;;;;;;7380901;19;20356;-70
2022/07/31 05:35:08;;;;;;;7.93;3.80;;;;;;;;;;7376378;19;20248;-72
2022/07/31 05:37:33;;;;;;;8.10;3.90;;;;;;;;;;7375465;19;20031;-73
2022/07/31 05:39:58;;;;;;;6.75;3.78;;;;;;;;;;7376732;19;20446;-71
2022/07/31 05:42:24;;;;;;;7.70;3.73;;;;;;;;;;7380126;19;20029;-72
2022/07/31 05:44:49;;;;;;;6.70;3.70;;;;;;;;;;7380503;19;20247;-75
2022/07/31 05:47:14;;;;;;;8.07;3.47;;;;;;;;;;7380604;19;20014;-71
2022/07/31 05:49:39;;;;;;;7.97;3.73;;;;;;;;;;7377004;19;20003;-72
2022/07/31 05:52:04;;;;;;;7.32;3.47;;;;;;;;;;7372540;19;20074;-74
2022/07/31 05:54:30;;;;;;;6.57;3.60;;;;;;;;;;7379305;19;20600;-71
2022/07/31 05:56:55;;;;;;;5.93;3.47;;;;;;;;;;7381844;19;20041;-71
2022/07/31 05:59:20;;;;;;;6.50;3.70;;;;;;;;;;7378366;19;20006;-72
2022/07/31 06:01:45;;;;;;;8.57;4.07;;;;;;;;;;7378496;19;20118;-72
2022/07/31 06:04:11;;;;;;;11.63;3.93;;;;;;;;;;7380068;19;20127;-71
2022/07/31 06:06:36;;;;;;;6.00;3.67;;;;;;;;;;7375657;19;20026;-73
2022/07/31 06:09:01;;;;;;;7.05;3.75;;;;;;;;;;7379597;19;20027;-72
2022/07/31 06:11:26;;;;;;;7.67;3.40;;;;;;;;;;7380199;19;20014;-71
2022/07/31 06:13:51;;;;;;;7.43;3.93;;;;;;;;;;7379919;19;20019;-73
2022/07/31 06:16:16;;;;;;;8.60;4.05;;;;;;;;;;7372244;19;20235;-71
2022/07/31 06:18:42;;;;;;;8.45;3.50;;;;;;;;;;7379779;19;20011;-73
2022/07/31 06:21:07;;;;;;;7.30;4.00;;;;;;;;;;7375454;19;20467;-74
2022/07/31 06:23:32;;;;;;;7.50;3.77;;;;;;;;;;7385358;19;20252;-72
2022/07/31 06:25:57;;;;;;;7.27;3.70;;;;;;;;;;7384698;19;20478;-71
2022/07/31 06:28:23;;;;;;;6.87;3.77;;;;;;;;;;7389216;19;20426;-72
2022/07/31 06:30:48;;;;;;;7.43;3.70;;;;;;;;;;7381219;19;20369;-71
2022/07/31 06:33:13;;;;;;;6.07;3.57;;;;;;;;;;7382012;19;20498;-72
2022/07/31 06:35:38;;;;;;;12.33;3.37;;;;;;;;;;7383224;19;20002;-71
2022/07/31 06:38:03;;;;;;;6.83;3.13;;;;;;;;;;7378247;19;20288;-71
2022/07/31 06:40:29;;;;;;;6.97;3.65;;;;;;;;;;7386806;19;20279;-73
2022/07/31 06:42:54;;;;;;;7.13;3.25;;;;;;;;;;7388653;19;20007;-71
2022/07/31 06:45:19;;;;;;;6.88;3.00;;;;;;;;;;7388970;19;19994;-71
2022/07/31 06:47:44;;;;;;;6.17;2.57;;;;;;;;;;7383302;19;20010;-72
2022/07/31 06:50:10;;;;;;;5.72;2.90;;;;;;;;;;7376678;19;20247;-71
2022/07/31 06:52:35;;;;;;;5.97;2.30;;;;;;;;;;7382488;19;20014;-71
2022/07/31 06:55:00;;;;;;;5.50;2.40;;;;;;;;;;7386511;19;20390;-73
2022/07/31 06:57:26;;;;;;;6.60;2.53;;;;;;;;;;7387107;19;20010;-73
2022/07/31 06:59:51;;;;;;;6.32;2.17;;;;;;;;;;7384867;19;20040;-72
2022/07/31 07:02:16;;;;;;;6.35;2.58;;;;;;;;;;7386278;19;20007;-72
2022/07/31 07:04:41;;;;;;;7.25;2.28;;;;;;;;;;7387062;19;20026;-71
2022/07/31 07:07:06;;;;;;;5.17;2.07;;;;;;;;;;7373607;19;20032;-73
2022/07/31 07:09:32;;;;;;;5.77;2.13;;;;;;;;;;7381180;19;20042;-72
2022/07/31 07:11:57;;;;;;;6.22;2.10;;;;;;;;;;7384473;19;19995;-71
2022/07/31 07:14:22;;;;;;;5.23;1.73;;;;;;;;;;7385039;19;20018;-72
2022/07/31 07:16:47;;;;;;;3.88;1.70;;;;;;;;;;7387154;19;20078;-72
2022/07/31 07:19:13;;;;;;;4.50;1.60;;;;;;;;;;7381380;19;20029;-72
2022/07/31 07:21:38;;;;;;;5.13;1.80;;;;;;;;;;7377012;19;20271;-73
2022/07/31 07:24:03;;;;;;;4.87;1.87;;;;;;;;;;7386521;19;20280;-73
2022/07/31 07:26:29;;;;;;;4.40;1.80;;;;;;;;;;7385988;19;20279;-74
2022/07/31 07:28:54;;;;;;;4.60;1.80;;;;;;;;;;7380170;19;20014;-73
2022/07/31 07:31:19;;;;;;;3.60;1.40;;;;;;;;;;7381198;19;20018;-72
2022/07/31 07:33:44;;;;;;;5.93;1.57;;;;;;;;;;7383381;19;20829;-73
2022/07/31 07:36:09;;;;;;;6.03;1.60;;;;;;;;;;7380399;19;20246;-71
2022/07/31 07:38:35;;;;;;;4.10;1.50;;;;;;;;;;7383559;19;20806;-72
2022/07/31 07:41:00;;;;;;;3.50;1.53;;;;;;;;;;7379082;19;20011;-73
2022/07/31 07:43:25;;;;;;;4.38;1.75;;;;;;;;;;7384332;19;20600;-73
2022/07/31 07:45:50;;;;;;;4.90;1.60;;;;;;;;;;7379193;19;20283;-72
2022/07/31 07:48:16;;;;;;;3.70;1.27;;;;;;;;;;7384369;19;20465;-73
2022/07/31 07:50:41;;;;;;;4.27;1.47;;;;;;;;;;7379087;19;19998;-72
2022/07/31 07:53:07;;;;;;;10.27;1.93;;;;;;;;;;7382723;19;20030;-73
2022/07/31 07:55:32;;;;;;;4.15;1.60;;;;;;;;;;7384158;19;20006;-74
2022/07/31 07:57:57;;;;;;;5.47;1.60;;;;;;;;;;7383218;19;20010;-72
2022/07/31 08:00:22;;;;;;;4.57;1.93;;;;;;;;;;7380010;19;20003;-74
2022/07/31 08:02:47;;;;;;;6.03;1.70;;;;;;;;;;7382714;19;20014;-72
2022/07/31 08:05:13;;;;;;;8.90;1.57;;;;;;;;;;7381150;19;20232;-72
2022/07/31 08:07:39;;;;;;;5.70;1.40;;;;;;;;;;7380461;19;20002;-73
2022/07/31 08:10:05;;;;;;;6.10;1.95;;;;;;;;;;7376775;19;20022;-71
2022/07/31 08:12:30;;;;;;;4.40;1.80;;;;;;;;;;7386114;19;20455;-72
2022/07/31 08:14:56;;;;;;;11.37;2.13;;;;;;;;;;7384417;19;20458;-72
2022/07/31 08:17:21;;;;;;;7.25;2.15;;;;;;;;;;7382199;19;20078;-73
2022/07/31 08:19:46;;;;;;;4.82;1.85;;;;;;;;;;7381679;19;20007;-72
2022/07/31 08:22:12;;;;;;;6.70;2.10;;;;;;;;;;7379955;19;20003;-72
2022/07/31 08:24:37;;;;;;;5.30;2.00;;;;;;;;;;7384760;19;20264;-73
2022/07/31 08:29:46;;;;;;;4.97;2.00;;;;;;;;;;7383834;19;20044;-71
2022/07/31 08:32:12;;;;;;;3.92;1.50;;;;;;;;;;7383131;19;20015;-72
2022/07/31 08:34:37;;;;;;;5.00;1.30;;;;;;;;;;7376205;19;19995;-73
2022/07/31 08:37:05;;;;;;;3.58;1.40;;;;;;;;;;7371079;19;20017;-72
2022/07/31 08:39:30;;;;;;;4.53;1.40;;;;;;;;;;7383930;19;20019;-72
2022/07/31 08:41:55;;;;;;;6.07;1.60;;;;;;;;;;7383081;19;20352;-72
2022/07/31 08:44:20;;;;;;;3.73;1.30;;;;;;;;;;7383776;19;20246;-73
2022/07/31 08:46:46;;;;;;;6.20;1.50;;;;;;;;;;7378463;19;21169;-73
2022/07/31 08:49:14;;;;;;;5.18;1.35;;;;;;;;;;7379534;19;20017;-72
2022/07/31 08:51:40;;;;;;;3.05;1.17;;;;;;;;;;7375411;19;20006;-72
2022/07/31 08:54:06;;;;;;;5.72;1.60;;;;;;;;;;7381435;19;20022;-72
2022/07/31 08:56:35;;;;;;;2.88;1.20;;;;;;;;;;7375085;19;20506;-71
2022/07/31 08:59:01;;;;;;;5.70;1.38;;;;;;;;;;7381248;19;20028;-72
2022/07/31 09:01:27;;;;;;;4.80;1.48;;;;;;;;;;7380433;19;20477;-75
2022/07/31 09:03:53;;;;;;;5.15;1.40;;;;;;;;;;7381678;19;20107;-73
2022/07/31 09:06:18;;;;;;;3.08;1.30;;;;;;;;;;7375156;19;20009;-73
2022/07/31 09:08:43;;;;;;;3.87;1.40;;;;;;;;;;7380400;19;20011;-72
2022/07/31 09:11:09;;;;;;;3.47;1.40;;;;;;;;;;7382268;19;20022;-73
2022/07/31 09:13:34;;;;;;;4.32;1.38;;;;;;;;;;7381979;19;20015;-72
2022/07/31 09:16:00;;;;;;;4.40;1.63;;;;;;;;;;7378088;19;20465;-72
2022/07/31 09:18:25;;;;;;;2.95;1.42;;;;;;;;;;7378956;19;20011;-73
2022/07/31 09:20:55;;;;;;;4.47;1.50;;;;;;;;;;7375190;19;20013;-72
2022/07/31 09:23:21;;;;;;;4.10;1.60;;;;;;;;;;7380884;19;20011;-73
2022/07/31 09:25:56;;;;;;;4.40;1.67;;;;;;;;;;7381180;19;20025;-73
2022/07/31 09:28:38;;;;;;;4.82;1.77;;;;;;;;;;7373492;19;20021;-73
2022/07/31 09:31:04;;;;;;;4.45;1.65;;;;;;;;;;7379833;19;20039;-73
2022/07/31 09:33:30;;;;;;;5.07;1.60;;;;;;;;;;7380789;19;20342;-70
2022/07/31 09:35:56;;;;;;;7.00;2.25;;;;;;;;;;7375228;19;19995;-73
2022/07/31 09:38:28;;;;;;;4.80;1.83;;;;;;;;;;7375157;19;20013;-74
2022/07/31 09:40:53;;;;;;;7.57;1.92;;;;;;;;;;7380396;19;20034;-75
2022/07/31 09:43:23;;;;;;;4.53;1.90;;;;;;;;;;7378449;19;20462;-75
2022/07/31 09:46:02;;;;;;;4.90;2.00;;;;;;;;;;7376844;19;20022;-72
2022/07/31 09:48:28;;;;;;;6.63;2.53;;;;;;;;;;7379250;19;20037;-71
2022/07/31 09:50:57;;;;;;;4.95;2.05;;;;;;;;;;7373625;19;19995;-75
2022/07/31 09:53:22;;;;;;;6.72;1.95;;;;;;;;;;7379097;19;20014;-72
2022/07/31 09:55:49;;;;;;;4.10;1.60;;;;;;;;;;7379750;19;20001;-72
2022/07/31 09:58:14;;;;;;;5.68;1.80;;;;;;;;;;7385853;19;20011;-72
2022/07/31 10:00:40;;;;;;;4.63;1.97;;;;;;;;;;7383895;19;20006;-73
2022/07/31 10:03:06;;;;;;;3.63;1.60;;;;;;;;;;7387837;19;20006;-72
2022/07/31 10:05:31;;;;;;;3.72;1.70;;;;;;;;;;7378929;19;20066;-72
2022/07/31 10:07:58;;;;;;;5.57;1.50;;;;;;;;;;7387553;19;20442;-72
2022/07/31 10:10:24;;;;;;;4.90;2.08;;;;;;;;;;7386955;19;20108;-72
2022/07/31 10:12:51;;;;;;;5.30;2.40;;;;;;;;;;7386490;19;20026;-72
2022/07/31 10:15:17;;;;;;;5.13;1.92;;;;;;;;;;7386424;19;20485;-74
2022/07/31 10:17:45;;;;;;;4.38;1.85;;;;;;;;;;7385485;19;20008;-72
2022/07/31 10:20:17;;;;;;;5.40;1.90;;;;;;;;;;7383711;19;20037;-72
2022/07/31 10:22:45;;;;;;;4.72;1.80;;;;;;;;;;7385404;19;20006;-73
2022/07/31 10:25:15;;;;;;;4.53;1.83;;;;;;;;;;7386949;19;19998;-72
2022/07/31 10:27:40;;;;;;;5.30;2.05;;;;;;;;;;7379407;19;20326;-73
2022/07/31 10:30:06;;;;;;;3.95;1.60;;;;;;;;;;7385542;19;20356;-72
2022/07/31 10:32:32;;;;;;;4.00;1.75;;;;;;;;;;7386007;19;20082;-72
2022/07/31 10:34:57;;;;;;;6.18;1.70;;;;;;;;;;7387325;19;20013;-74
2022/07/31 10:37:42;;;;;;;4.68;1.88;;;;;;;;;;7383497;19;20014;-73
2022/07/31 10:40:07;;;;;;;5.28;1.50;;;;;;;;;;7379582;19;20018;-73
2022/07/31 10:42:36;;;;;;;4.82;1.83;;;;;;;;;;7381865;19;19998;-70
2022/07/31 10:45:08;;;;;;;4.35;1.85;;;;;;;;;;7387327;19;19990;-71
2022/07/31 10:47:33;;;;;;;4.22;1.70;;;;;;;;;;7382078;19;20010;-72
2022/07/31 10:49:59;;;;;;;6.88;1.75;;;;;;;;;;7381210;19;19999;-76
2022/07/31 10:52:37;;;;;;;3.03;1.23;;;;;;;;;;7382897;19;20018;-74
2022/07/31 10:55:13;;;;;;;3.55;1.40;;;;;;;;;;7379307;19;20003;-72
2022/07/31 10:57:38;;;;;;;4.45;1.58;;;;;;;;;;7386958;19;20022;-72
2022/07/31 11:00:16;;;;;;;5.07;2.00;;;;;;;;;;7386343;19;20435;-72
2022/07/31 11:02:41;;;;;;;4.35;1.52;;;;;;;;;;7383879;19;20023;-75
2022/07/31 11:05:07;;;;;;;4.38;1.88;;;;;;;;;;7381892;19;20041;-72
2022/07/31 11:07:32;;;;;;;3.70;1.70;;;;;;;;;;7382501;19;20010;-70
2022/07/31 11:10:14;;;;;;;5.43;1.63;;;;;;;;;;7387870;19;20324;-71
2022/07/31 11:12:39;;;;;;;4.00;1.88;;;;;;;;;;7379961;19;20257;-72
2022/07/31 11:15:16;;;;;;;4.43;1.70;;;;;;;;;;7383576;19;20010;-70
2022/07/31 11:17:41;;;;;;;6.95;1.73;;;;;;;;;;7386565;19;20046;-73
2022/07/31 11:20:16;;;;;;;4.43;1.60;;;;;;;;;;7379697;19;19990;-72
2022/07/31 11:22:41;;;;;;;3.17;1.35;;;;;;;;;;7372705;19;20338;-75
2022/07/31 11:25:11;;;;;;;6.38;1.95;;;;;;;;;;7382573;19;20062;-72
2022/07/31 11:27:37;;;;;;;4.10;1.70;;;;;;;;;;7375555;19;20042;-70
2022/07/31 11:30:04;;;;;;;5.18;1.60;;;;;;;;;;7380085;19;20041;-72
2022/07/31 11:32:29;;;;;;;5.25;1.70;;;;;;;;;;7373529;19;20396;-72
2022/07/31 11:34:55;;;;;;;5.10;1.53;;;;;;;;;;7384579;19;20031;-73
2022/07/31 11:37:24;;;;;;;4.82;1.50;;;;;;;;;;7373952;19;20011;-72
2022/07/31 11:39:51;;;;;;;5.63;1.90;;;;;;;;;;7376175;19;20002;-72
2022/07/31 11:42:17;;;;;;;7.43;1.70;;;;;;;;;;7374583;19;20014;-72
2022/07/31 11:44:42;;;;;;;4.45;1.45;;;;;;;;;;7382040;19;19991;-71
2022/07/31 11:47:08;;;;;;;3.58;1.45;;;;;;;;;;7376486;19;20042;-74
2022/07/31 11:49:35;;;;;;;4.95;1.55;;;;;;;;;;7380501;19;19998;-71
2022/07/31 11:52:01;;;;;;;3.83;1.42;;;;;;;;;;7366126;19;20014;-72
2022/07/31 11:54:26;;;;;;;3.75;1.52;;;;;;;;;;7378125;19;20070;-72
2022/07/31 11:56:52;;;;;;;6.65;1.65;;;;;;;;;;7375588;19;20027;-72
2022/07/31 11:59:27;;;;;;;2.95;1.25;;;;;;;;;;7376573;19;19999;-76
2022/07/31 12:01:52;;;;;;;3.35;1.30;;;;;;;;;;7382796;19;20015;-71
2022/07/31 12:04:17;;;;;;;4.27;1.60;;;;;;;;;;7378076;19;20014;-74
2022/07/31 12:06:43;;;;;;;3.50;1.40;;;;;;;;;;7378574;19;20035;-72
2022/07/31 12:09:08;;;;;;;5.05;1.70;;;;;;;;;;7376592;19;20514;-73
2022/07/31 12:11:33;;;;;;;3.97;1.50;;;;;;;;;;7377666;19;20081;-71
2022/07/31 12:13:58;;;;;;;3.22;1.30;;;;;;;;;;7377628;19;20023;-71
2022/07/31 12:16:24;;;;;;;3.73;1.50;;;;;;;;;;7377871;19;19994;-73
2022/07/31 12:18:49;;;;;;;3.77;1.33;;;;;;;;;;7371092;19;20031;-76
2022/07/31 12:21:14;;;;;;;4.93;1.60;;;;;;;;;;7373404;19;20384;-73
2022/07/31 12:23:47;;;;;;;5.28;1.73;;;;;;;;;;7368066;19;20015;-73
2022/07/31 12:26:20;;;;;;;3.88;1.58;;;;;;;;;;7373840;19;20014;-72
2022/07/31 12:28:55;;;;;;;4.78;1.67;;;;;;;;;;7375469;19;20014;-71
2022/07/31 12:31:20;;;;;;;3.22;1.50;;;;;;;;;;7369100;19;20017;-70
2022/07/31 12:33:45;;;;;;;6.00;1.30;;;;;;;;;;7383576;19;20011;-71
2022/07/31 12:36:11;;;;;;;5.85;1.35;;;;;;;;;;7375065;19;20012;-72
2022/07/31 12:38:36;;;;;;;3.25;1.20;;;;;;;;;;7382258;19;20018;-70
2022/07/31 12:41:05;;;;;;;4.10;1.57;;;;;;;;;;7376742;19;20034;-72
2022/07/31 12:43:31;;;;;;;4.07;1.10;;;;;;;;;;7380245;19;20327;-71
2022/07/31 12:45:59;;;;;;;3.50;1.27;;;;;;;;;;7379685;19;20021;-72
2022/07/31 12:48:24;;;;;;;3.50;1.33;;;;;;;;;;7380639;19;20034;-71
2022/07/31 12:50:49;;;;;;;4.03;1.30;;;;;;;;;;7377787;19;19998;-75
2022/07/31 12:53:15;;;;;;;2.53;1.20;;;;;;;;;;7379041;19;20006;-79
2022/07/31 12:55:40;;;;;;;4.17;1.13;;;;;;;;;;7374280;19;20121;-75
2022/07/31 12:58:05;;;;;;;3.20;1.00;;;;;;;;;;7382276;19;20259;-72
2022/07/31 13:00:30;;;;;;;2.77;1.20;;;;;;;;;;7383189;19;20526;-71
2022/07/31 13:02:55;;;;;;;2.90;1.20;;;;;;;;;;7383118;19;20354;-72
2022/07/31 13:05:21;;;;;;;3.28;1.30;;;;;;;;;;7378187;19;20014;-72
2022/07/31 13:07:47;;;;;;;4.80;1.23;;;;;;;;;;7378276;19;20018;-71
2022/07/31 13:10:12;;;;;;;3.13;1.10;;;;;;;;;;7384677;19;20006;-72
2022/07/31 13:12:37;;;;;;;2.70;1.17;;;;;;;;;;7381796;19;20014;-71
2022/07/31 13:15:02;;;;;;;4.43;1.33;;;;;;;;;;7381686;19;20236;-72
2022/07/31 13:17:28;;;;;;;3.63;1.20;;;;;;;;;;7382136;19;20316;-72
2022/07/31 13:19:53;;;;;;;3.15;1.20;;;;;;;;;;7375369;19;20009;-72
2022/07/31 13:22:19;;;;;;;4.13;1.10;;;;;;;;;;7378959;19;20023;-71
2022/07/31 13:24:44;;;;;;;3.73;1.30;;;;;;;;;;7378853;19;20846;-71
2022/07/31 13:27:09;;;;;;;4.88;1.33;;;;;;;;;;7382824;19;20372;-74
2022/07/31 13:29:34;;;;;;;4.40;1.20;;;;;;;;;;7381680;19;20301;-73
2022/07/31 13:32:00;;;;;;;4.10;1.35;;;;;;;;;;7379644;19;20018;-71
2022/07/31 13:34:25;;;;;;;4.88;1.50;;;;;;;;;;7381093;19;20017;-73
2022/07/31 13:36:50;;;;;;;4.73;1.53;;;;;;;;;;7374474;19;19995;-72
2022/07/31 13:39:16;;;;;;;3.30;1.30;;;;;;;;;;7379916;19;20485;-72
2022/07/31 13:41:41;;;;;;;3.63;1.10;;;;;;;;;;7383505;19;20578;-72
2022/07/31 13:44:06;;;;;;;4.83;1.50;;;;;;;;;;7373737;19;20002;-72
2022/07/31 13:46:32;;;;;;;4.57;1.40;;;;;;;;;;7382074;19;20434;-71
2022/07/31 13:48:58;;;;;;;3.80;1.48;;;;;;;;;;7373328;19;20230;-74
2022/07/31 13:51:23;;;;;;;4.40;1.25;;;;;;;;;;7367122;19;20034;-73
2022/07/31 13:53:49;;;;;;;4.50;1.50;;;;;;;;;;7379614;19;20006;-75
2022/07/31 13:56:17;;;;;;;5.70;1.50;;;;;;;;;;7374923;19;20019;-72
2022/07/31 13:58:43;;;;;;;3.20;1.27;;;;;;;;;;7361821;19;20037;-71
2022/07/31 14:01:08;;;;;;;4.22;1.30;;;;;;;;;;7380668;19;20743;-72
2022/07/31 14:03:33;;;;;;;4.00;1.60;;;;;;;;;;7378477;19;20285;-72
2022/07/31 14:05:59;;;;;;;4.23;1.47;;;;;;;;;;7377370;19;20260;-72
2022/07/31 14:08:24;;;;;;;4.10;1.40;;;;;;;;;;7379726;19;20025;-72
2022/07/31 14:10:50;;;;;;;5.72;1.50;;;;;;;;;;7379854;19;20022;-75
2022/07/31 14:13:15;;;;;;;3.85;1.45;;;;;;;;;;7381012;19;20042;-72
2022/07/31 14:15:41;;;;;;;5.85;1.63;;;;;;;;;;7371592;19;20015;-72
2022/07/31 14:18:06;;;;;;;3.47;1.50;;;;;;;;;;7365202;19;20086;-72
2022/07/31 14:20:33;;;;;;;4.43;1.73;;;;;;;;;;7364541;19;20009;-72
2022/07/31 14:22:58;;;;;;;3.67;1.40;;;;;;;;;;7380443;19;20259;-70
2022/07/31 14:25:23;;;;;;;5.43;1.60;;;;;;;;;;7374287;19;20002;-71
2022/07/31 14:27:49;;;;;;;3.27;1.30;;;;;;;;;;7364038;19;20343;-75
2022/07/31 14:30:14;;;;;;;3.80;1.35;;;;;;;;;;7369062;19;20398;-73
2022/07/31 14:32:40;;;;;;;5.82;1.63;;;;;;;;;;7375505;19;20016;-71
2022/07/31 14:35:05;;;;;;;4.05;1.50;;;;;;;;;;7369372;19;19994;-72
2022/07/31 14:37:30;;;;;;;4.40;1.40;;;;;;;;;;7370364;19;20015;-71
2022/07/31 14:39:56;;;;;;;3.90;1.40;;;;;;;;;;7378251;19;20087;-73
2022/07/31 14:42:21;;;;;;;3.22;1.00;;;;;;;;;;7378668;19;20014;-72